sensor_id;sensor_type;location;lat;lon;timestamp;P1;durP1;ratioP1;P2;durP2;ratioP2
39956;SDS011;48483;44.640;7.494;2024-02-04T00:02:22;12.25;;;8.38;;
39956;SDS011;48483;44.640;7.494;2024-02-04T00:04:51;13.00;;;8.18;;
39956;SDS011;48483;44.640;7.494;2024-02-04T00:07:18;10.32;;;6.97;;
39956;SDS011;48483;44.640;7.494;2024-02-04T00:09:44;10.38;;;7.53;;
39956;SDS011;48483;44.640;7.494;2024-02-04T00:12:11;10.93;;;7.50;;
39956;SDS011;48483;44.640;7.494;2024-02-04T00:14:38;12.02;;;7.50;;
39956;SDS011;48483;44.640;7.494;2024-02-04T00:17:06;12.48;;;7.78;;
39956;SDS011;48483;44.640;7.494;2024-02-04T00:19:33;9.77;;;6.65;;
39956;SDS011;48483;44.640;7.494;2024-02-04T00:21:59;11.40;;;7.22;;
39956;SDS011;48483;44.640;7.494;2024-02-04T00:24:26;9.38;;;7.00;;
39956;SDS011;48483;44.640;7.494;2024-02-04T00:26:53;10.23;;;7.15;;
39956;SDS011;48483;44.640;7.494;2024-02-04T00:29:19;10.05;;;7.15;;
39956;SDS011;48483;44.640;7.494;2024-02-04T00:31:46;11.75;;;7.00;;
39956;SDS011;48483;44.640;7.494;2024-02-04T00:34:14;10.65;;;7.03;;
39956;SDS011;48483;44.640;7.494;2024-02-04T00:36:42;11.10;;;7.88;;
39956;SDS011;48483;44.640;7.494;2024-02-04T00:39:08;12.73;;;7.57;;
39956;SDS011;48483;44.640;7.494;2024-02-04T00:41:35;10.20;;;6.80;;
39956;SDS011;48483;44.640;7.494;2024-02-04T00:44:01;12.23;;;8.23;;
39956;SDS011;48483;44.640;7.494;2024-02-04T00:46:28;10.68;;;8.73;;
39956;SDS011;48483;44.640;7.494;2024-02-04T00:48:55;10.65;;;7.82;;
39956;SDS011;48483;44.640;7.494;2024-02-04T00:51:23;15.38;;;8.10;;
39956;SDS011;48483;44.640;7.494;2024-02-04T00:53:50;12.88;;;7.15;;
39956;SDS011;48483;44.640;7.494;2024-02-04T00:56:16;11.27;;;7.63;;
39956;SDS011;48483;44.640;7.494;2024-02-04T00:58:43;11.93;;;6.45;;
39956;SDS011;48483;44.640;7.494;2024-02-04T01:01:10;11.45;;;7.28;;
39956;SDS011;48483;44.640;7.494;2024-02-04T01:03:37;10.50;;;7.57;;
39956;SDS011;48483;44.640;7.494;2024-02-04T01:06:04;11.15;;;8.07;;
39956;SDS011;48483;44.640;7.494;2024-02-04T01:08:32;11.10;;;7.20;;
39956;SDS011;48483;44.640;7.494;2024-02-04T01:11:00;10.90;;;7.75;;
39956;SDS011;48483;44.640;7.494;2024-02-04T01:13:27;11.57;;;7.05;;
39956;SDS011;48483;44.640;7.494;2024-02-04T01:15:54;10.32;;;7.10;;
39956;SDS011;48483;44.640;7.494;2024-02-04T01:18:21;12.27;;;9.30;;
39956;SDS011;48483;44.640;7.494;2024-02-04T01:20:47;13.25;;;8.05;;
39956;SDS011;48483;44.640;7.494;2024-02-04T01:23:14;11.10;;;7.90;;
39956;SDS011;48483;44.640;7.494;2024-02-04T01:25:45;12.60;;;8.07;;
39956;SDS011;48483;44.640;7.494;2024-02-04T01:28:12;12.20;;;7.57;;
39956;SDS011;48483;44.640;7.494;2024-02-04T01:30:39;9.88;;;7.25;;
39956;SDS011;48483;44.640;7.494;2024-02-04T01:33:05;13.48;;;8.48;;
39956;SDS011;48483;44.640;7.494;2024-02-04T01:35:33;12.70;;;6.85;;
39956;SDS011;48483;44.640;7.494;2024-02-04T01:38:00;9.48;;;6.40;;
39956;SDS011;48483;44.640;7.494;2024-02-04T01:40:26;8.52;;;6.03;;
39956;SDS011;48483;44.640;7.494;2024-02-04T01:42:54;9.25;;;5.90;;
39956;SDS011;48483;44.640;7.494;2024-02-04T01:45:22;8.63;;;5.63;;
39956;SDS011;48483;44.640;7.494;2024-02-04T01:47:48;10.57;;;7.03;;
39956;SDS011;48483;44.640;7.494;2024-02-04T01:50:15;10.00;;;5.72;;
39956;SDS011;48483;44.640;7.494;2024-02-04T01:52:42;9.80;;;6.68;;
39956;SDS011;48483;44.640;7.494;2024-02-04T01:55:10;11.05;;;6.93;;
39956;SDS011;48483;44.640;7.494;2024-02-04T01:57:37;11.23;;;7.78;;
39956;SDS011;48483;44.640;7.494;2024-02-04T02:00:07;8.88;;;6.40;;
39956;SDS011;48483;44.640;7.494;2024-02-04T02:02:37;11.50;;;6.32;;
39956;SDS011;48483;44.640;7.494;2024-02-04T02:05:06;9.35;;;5.90;;
39956;SDS011;48483;44.640;7.494;2024-02-04T02:07:34;12.02;;;6.25;;
39956;SDS011;48483;44.640;7.494;2024-02-04T02:10:00;11.27;;;6.32;;
39956;SDS011;48483;44.640;7.494;2024-02-04T02:12:29;8.75;;;6.05;;
39956;SDS011;48483;44.640;7.494;2024-02-04T02:15:03;8.10;;;5.82;;
39956;SDS011;48483;44.640;7.494;2024-02-04T02:17:38;8.23;;;5.13;;
39956;SDS011;48483;44.640;7.494;2024-02-04T02:20:16;9.10;;;5.65;;
39956;SDS011;48483;44.640;7.494;2024-02-04T02:22:48;9.40;;;6.32;;
39956;SDS011;48483;44.640;7.494;2024-02-04T02:25:18;8.63;;;6.20;;
39956;SDS011;48483;44.640;7.494;2024-02-04T02:27:47;9.88;;;6.05;;
39956;SDS011;48483;44.640;7.494;2024-02-04T02:30:14;9.77;;;7.38;;
39956;SDS011;48483;44.640;7.494;2024-02-04T02:32:42;12.98;;;5.38;;
39956;SDS011;48483;44.640;7.494;2024-02-04T02:35:10;10.52;;;5.68;;
39956;SDS011;48483;44.640;7.494;2024-02-04T02:37:40;8.35;;;5.97;;
39956;SDS011;48483;44.640;7.494;2024-02-04T02:40:12;8.65;;;5.15;;
39956;SDS011;48483;44.640;7.494;2024-02-04T02:42:47;10.63;;;6.43;;
39956;SDS011;48483;44.640;7.494;2024-02-04T02:45:14;9.30;;;6.55;;
39956;SDS011;48483;44.640;7.494;2024-02-04T02:47:41;10.32;;;6.07;;
39956;SDS011;48483;44.640;7.494;2024-02-04T02:50:10;9.68;;;6.65;;
39956;SDS011;48483;44.640;7.494;2024-02-04T02:52:37;11.40;;;6.82;;
39956;SDS011;48483;44.640;7.494;2024-02-04T02:55:04;12.75;;;7.22;;
39956;SDS011;48483;44.640;7.494;2024-02-04T02:57:33;8.57;;;5.65;;
39956;SDS011;48483;44.640;7.494;2024-02-04T02:59:59;10.70;;;5.88;;
39956;SDS011;48483;44.640;7.494;2024-02-04T03:02:26;12.57;;;6.40;;
39956;SDS011;48483;44.640;7.494;2024-02-04T03:04:53;9.32;;;5.97;;
39956;SDS011;48483;44.640;7.494;2024-02-04T03:07:19;11.02;;;6.47;;
39956;SDS011;48483;44.640;7.494;2024-02-04T03:09:46;10.50;;;5.95;;
39956;SDS011;48483;44.640;7.494;2024-02-04T03:12:13;9.95;;;6.53;;
39956;SDS011;48483;44.640;7.494;2024-02-04T03:14:41;10.35;;;5.53;;
39956;SDS011;48483;44.640;7.494;2024-02-04T03:17:08;9.63;;;5.95;;
39956;SDS011;48483;44.640;7.494;2024-02-04T03:19:34;8.77;;;5.05;;
39956;SDS011;48483;44.640;7.494;2024-02-04T03:22:01;9.88;;;5.43;;
39956;SDS011;48483;44.640;7.494;2024-02-04T03:24:28;10.07;;;5.82;;
39956;SDS011;48483;44.640;7.494;2024-02-04T03:26:54;8.90;;;5.72;;
39956;SDS011;48483;44.640;7.494;2024-02-04T03:29:21;10.27;;;6.72;;
39956;SDS011;48483;44.640;7.494;2024-02-04T03:31:49;9.70;;;5.88;;
39956;SDS011;48483;44.640;7.494;2024-02-04T03:34:16;9.70;;;5.55;;
39956;SDS011;48483;44.640;7.494;2024-02-04T03:36:42;9.45;;;5.55;;
39956;SDS011;48483;44.640;7.494;2024-02-04T03:39:09;8.43;;;5.22;;
39956;SDS011;48483;44.640;7.494;2024-02-04T03:41:36;9.68;;;6.05;;
39956;SDS011;48483;44.640;7.494;2024-02-04T03:44:03;14.20;;;6.55;;
39956;SDS011;48483;44.640;7.494;2024-02-04T03:46:30;8.38;;;5.88;;
39956;SDS011;48483;44.640;7.494;2024-02-04T03:48:58;9.27;;;5.90;;
39956;SDS011;48483;44.640;7.494;2024-02-04T03:51:25;11.82;;;7.00;;
39956;SDS011;48483;44.640;7.494;2024-02-04T03:53:52;9.00;;;6.65;;
39956;SDS011;48483;44.640;7.494;2024-02-04T03:56:18;7.78;;;5.65;;
39956;SDS011;48483;44.640;7.494;2024-02-04T03:58:45;9.70;;;7.13;;
39956;SDS011;48483;44.640;7.494;2024-02-04T04:01:12;10.93;;;7.50;;
39956;SDS011;48483;44.640;7.494;2024-02-04T04:03:39;10.73;;;7.13;;
39956;SDS011;48483;44.640;7.494;2024-02-04T04:06:07;11.85;;;7.00;;
39956;SDS011;48483;44.640;7.494;2024-02-04T04:08:34;11.52;;;7.03;;
39956;SDS011;48483;44.640;7.494;2024-02-04T04:11:01;10.52;;;6.95;;
39956;SDS011;48483;44.640;7.494;2024-02-04T04:13:28;11.60;;;7.75;;
39956;SDS011;48483;44.640;7.494;2024-02-04T04:15:54;9.50;;;6.53;;
39956;SDS011;48483;44.640;7.494;2024-02-04T04:18:21;8.75;;;6.18;;
39956;SDS011;48483;44.640;7.494;2024-02-04T04:20:48;8.60;;;5.95;;
39956;SDS011;48483;44.640;7.494;2024-02-04T04:23:16;9.30;;;6.68;;
39956;SDS011;48483;44.640;7.494;2024-02-04T04:25:43;7.78;;;5.43;;
39956;SDS011;48483;44.640;7.494;2024-02-04T04:28:09;9.25;;;5.35;;
39956;SDS011;48483;44.640;7.494;2024-02-04T04:30:36;8.27;;;5.57;;
39956;SDS011;48483;44.640;7.494;2024-02-04T04:33:02;9.75;;;5.90;;
39956;SDS011;48483;44.640;7.494;2024-02-04T04:35:29;9.88;;;6.55;;
39956;SDS011;48483;44.640;7.494;2024-02-04T04:37:56;7.97;;;5.40;;
39956;SDS011;48483;44.640;7.494;2024-02-04T04:40:24;10.13;;;6.20;;
39956;SDS011;48483;44.640;7.494;2024-02-04T04:42:51;11.00;;;6.75;;
39956;SDS011;48483;44.640;7.494;2024-02-04T04:45:17;9.65;;;6.70;;
39956;SDS011;48483;44.640;7.494;2024-02-04T04:47:44;9.88;;;6.47;;
39956;SDS011;48483;44.640;7.494;2024-02-04T04:50:10;12.73;;;7.32;;
39956;SDS011;48483;44.640;7.494;2024-02-04T04:52:37;11.15;;;7.20;;
39956;SDS011;48483;44.640;7.494;2024-02-04T04:55:04;9.82;;;6.38;;
39956;SDS011;48483;44.640;7.494;2024-02-04T04:57:32;11.98;;;6.55;;
39956;SDS011;48483;44.640;7.494;2024-02-04T04:59:59;10.63;;;6.28;;
39956;SDS011;48483;44.640;7.494;2024-02-04T05:02:32;10.38;;;6.50;;
39956;SDS011;48483;44.640;7.494;2024-02-04T05:04:59;9.93;;;6.65;;
39956;SDS011;48483;44.640;7.494;2024-02-04T05:07:26;9.73;;;5.90;;
39956;SDS011;48483;44.640;7.494;2024-02-04T05:09:52;8.80;;;5.15;;
39956;SDS011;48483;44.640;7.494;2024-02-04T05:12:19;7.10;;;4.80;;
39956;SDS011;48483;44.640;7.494;2024-02-04T05:14:47;8.68;;;6.53;;
39956;SDS011;48483;44.640;7.494;2024-02-04T05:17:14;8.18;;;5.95;;
39956;SDS011;48483;44.640;7.494;2024-02-04T05:19:40;8.82;;;5.43;;
39956;SDS011;48483;44.640;7.494;2024-02-04T05:22:08;8.90;;;5.63;;
39956;SDS011;48483;44.640;7.494;2024-02-04T05:24:35;8.57;;;5.57;;
39956;SDS011;48483;44.640;7.494;2024-02-04T05:27:02;9.27;;;5.55;;
39956;SDS011;48483;44.640;7.494;2024-02-04T05:29:29;8.00;;;5.57;;
39956;SDS011;48483;44.640;7.494;2024-02-04T05:31:58;10.95;;;6.50;;
39956;SDS011;48483;44.640;7.494;2024-02-04T05:34:24;12.80;;;5.78;;
39956;SDS011;48483;44.640;7.494;2024-02-04T05:36:51;8.15;;;6.47;;
39956;SDS011;48483;44.640;7.494;2024-02-04T05:39:18;9.82;;;7.18;;
39956;SDS011;48483;44.640;7.494;2024-02-04T05:41:45;10.93;;;7.93;;
39956;SDS011;48483;44.640;7.494;2024-02-04T05:44:11;12.02;;;7.32;;
39956;SDS011;48483;44.640;7.494;2024-02-04T05:46:38;10.15;;;6.85;;
39956;SDS011;48483;44.640;7.494;2024-02-04T05:49:06;8.68;;;6.18;;
39956;SDS011;48483;44.640;7.494;2024-02-04T05:51:37;7.30;;;4.60;;
39956;SDS011;48483;44.640;7.494;2024-02-04T05:54:04;7.35;;;4.88;;
39956;SDS011;48483;44.640;7.494;2024-02-04T05:56:31;8.18;;;5.03;;
39956;SDS011;48483;44.640;7.494;2024-02-04T05:58:57;7.28;;;5.07;;
39956;SDS011;48483;44.640;7.494;2024-02-04T06:01:24;4.90;;;3.30;;
39956;SDS011;48483;44.640;7.494;2024-02-04T06:03:51;8.65;;;5.72;;
39956;SDS011;48483;44.640;7.494;2024-02-04T06:06:19;7.32;;;4.97;;
39956;SDS011;48483;44.640;7.494;2024-02-04T06:08:46;6.63;;;4.53;;
39956;SDS011;48483;44.640;7.494;2024-02-04T06:11:13;7.75;;;4.63;;
39956;SDS011;48483;44.640;7.494;2024-02-04T06:13:41;6.43;;;4.38;;
39956;SDS011;48483;44.640;7.494;2024-02-04T06:16:08;5.57;;;3.75;;
39956;SDS011;48483;44.640;7.494;2024-02-04T06:18:38;5.40;;;3.33;;
39956;SDS011;48483;44.640;7.494;2024-02-04T06:21:05;5.90;;;3.72;;
39956;SDS011;48483;44.640;7.494;2024-02-04T06:23:34;6.90;;;3.78;;
39956;SDS011;48483;44.640;7.494;2024-02-04T06:26:01;6.57;;;4.40;;
39956;SDS011;48483;44.640;7.494;2024-02-04T06:28:27;7.22;;;4.15;;
39956;SDS011;48483;44.640;7.494;2024-02-04T06:30:54;5.93;;;3.60;;
39956;SDS011;48483;44.640;7.494;2024-02-04T06:33:21;7.93;;;4.40;;
39956;SDS011;48483;44.640;7.494;2024-02-04T06:35:49;7.60;;;4.43;;
39956;SDS011;48483;44.640;7.494;2024-02-04T06:38:15;10.05;;;4.22;;
39956;SDS011;48483;44.640;7.494;2024-02-04T06:40:43;8.70;;;4.65;;
39956;SDS011;48483;44.640;7.494;2024-02-04T06:43:10;7.22;;;4.50;;
39956;SDS011;48483;44.640;7.494;2024-02-04T06:45:37;7.00;;;4.28;;
39956;SDS011;48483;44.640;7.494;2024-02-04T06:48:04;9.50;;;4.30;;
39956;SDS011;48483;44.640;7.494;2024-02-04T06:50:31;7.68;;;4.00;;
39956;SDS011;48483;44.640;7.494;2024-02-04T06:52:57;5.45;;;3.92;;
39956;SDS011;48483;44.640;7.494;2024-02-04T06:55:24;5.93;;;3.15;;
39956;SDS011;48483;44.640;7.494;2024-02-04T06:57:52;7.80;;;3.40;;
39956;SDS011;48483;44.640;7.494;2024-02-04T07:00:19;6.72;;;4.10;;
39956;SDS011;48483;44.640;7.494;2024-02-04T07:02:47;7.40;;;3.75;;
39956;SDS011;48483;44.640;7.494;2024-02-04T07:05:13;6.13;;;3.78;;
39956;SDS011;48483;44.640;7.494;2024-02-04T07:07:41;6.82;;;4.45;;
39956;SDS011;48483;44.640;7.494;2024-02-04T07:10:08;12.77;;;4.63;;
39956;SDS011;48483;44.640;7.494;2024-02-04T07:12:35;7.22;;;4.63;;
39956;SDS011;48483;44.640;7.494;2024-02-04T07:15:03;6.32;;;3.92;;
39956;SDS011;48483;44.640;7.494;2024-02-04T07:17:30;7.15;;;3.85;;
39956;SDS011;48483;44.640;7.494;2024-02-04T07:19:57;7.53;;;4.30;;
39956;SDS011;48483;44.640;7.494;2024-02-04T07:22:23;7.55;;;4.45;;
39956;SDS011;48483;44.640;7.494;2024-02-04T07:24:50;10.90;;;4.93;;
39956;SDS011;48483;44.640;7.494;2024-02-04T07:27:16;10.00;;;5.65;;
39956;SDS011;48483;44.640;7.494;2024-02-04T07:29:43;8.32;;;5.03;;
39956;SDS011;48483;44.640;7.494;2024-02-04T07:32:11;9.38;;;5.32;;
39956;SDS011;48483;44.640;7.494;2024-02-04T07:34:37;9.07;;;5.35;;
39956;SDS011;48483;44.640;7.494;2024-02-04T07:37:04;11.15;;;5.93;;
39956;SDS011;48483;44.640;7.494;2024-02-04T07:39:31;8.35;;;5.07;;
39956;SDS011;48483;44.640;7.494;2024-02-04T07:41:57;8.43;;;5.75;;
39956;SDS011;48483;44.640;7.494;2024-02-04T07:44:26;8.02;;;5.18;;
39956;SDS011;48483;44.640;7.494;2024-02-04T07:46:52;8.77;;;5.85;;
39956;SDS011;48483;44.640;7.494;2024-02-04T07:49:20;10.82;;;5.30;;
39956;SDS011;48483;44.640;7.494;2024-02-04T07:51:47;11.13;;;5.50;;
39956;SDS011;48483;44.640;7.494;2024-02-04T07:54:14;9.60;;;5.28;;
39956;SDS011;48483;44.640;7.494;2024-02-04T07:56:41;8.50;;;5.53;;
39956;SDS011;48483;44.640;7.494;2024-02-04T07:59:07;8.70;;;6.15;;
39956;SDS011;48483;44.640;7.494;2024-02-04T08:01:34;10.77;;;6.65;;
39956;SDS011;48483;44.640;7.494;2024-02-04T08:04:01;10.38;;;7.75;;
39956;SDS011;48483;44.640;7.494;2024-02-04T08:06:29;9.25;;;5.57;;
39956;SDS011;48483;44.640;7.494;2024-02-04T08:08:56;29.40;;;14.38;;
39956;SDS011;48483;44.640;7.494;2024-02-04T08:11:23;18.10;;;12.27;;
39956;SDS011;48483;44.640;7.494;2024-02-04T08:13:49;12.35;;;7.57;;
39956;SDS011;48483;44.640;7.494;2024-02-04T08:16:16;12.85;;;9.02;;
39956;SDS011;48483;44.640;7.494;2024-02-04T08:18:42;14.35;;;8.43;;
39956;SDS011;48483;44.640;7.494;2024-02-04T08:21:09;12.63;;;9.05;;
39956;SDS011;48483;44.640;7.494;2024-02-04T08:23:37;15.60;;;12.07;;
39956;SDS011;48483;44.640;7.494;2024-02-04T08:26:05;17.63;;;12.93;;
39956;SDS011;48483;44.640;7.494;2024-02-04T08:28:32;12.73;;;8.75;;
39956;SDS011;48483;44.640;7.494;2024-02-04T08:30:58;13.57;;;10.00;;
39956;SDS011;48483;44.640;7.494;2024-02-04T08:33:25;12.68;;;8.57;;
39956;SDS011;48483;44.640;7.494;2024-02-04T08:35:52;10.07;;;7.35;;
39956;SDS011;48483;44.640;7.494;2024-02-04T08:38:18;13.48;;;8.50;;
39956;SDS011;48483;44.640;7.494;2024-02-04T08:40:46;11.75;;;8.18;;
39956;SDS011;48483;44.640;7.494;2024-02-04T08:43:13;14.73;;;7.97;;
39956;SDS011;48483;44.640;7.494;2024-02-04T08:45:39;11.98;;;8.73;;
39956;SDS011;48483;44.640;7.494;2024-02-04T08:48:06;10.98;;;7.25;;
39956;SDS011;48483;44.640;7.494;2024-02-04T08:50:33;12.40;;;8.50;;
39956;SDS011;48483;44.640;7.494;2024-02-04T08:52:59;15.63;;;9.13;;
39956;SDS011;48483;44.640;7.494;2024-02-04T08:55:26;16.55;;;10.50;;
39956;SDS011;48483;44.640;7.494;2024-02-04T08:57:54;10.63;;;7.47;;
39956;SDS011;48483;44.640;7.494;2024-02-04T09:00:21;11.73;;;7.43;;
39956;SDS011;48483;44.640;7.494;2024-02-04T09:02:48;13.77;;;6.75;;
39956;SDS011;48483;44.640;7.494;2024-02-04T09:05:15;10.68;;;6.90;;
39956;SDS011;48483;44.640;7.494;2024-02-04T09:07:42;18.30;;;7.53;;
39956;SDS011;48483;44.640;7.494;2024-02-04T09:10:09;15.27;;;8.80;;
39956;SDS011;48483;44.640;7.494;2024-02-04T09:12:36;17.40;;;8.00;;
39956;SDS011;48483;44.640;7.494;2024-02-04T09:15:04;13.07;;;8.75;;
39956;SDS011;48483;44.640;7.494;2024-02-04T09:17:31;11.70;;;7.65;;
39956;SDS011;48483;44.640;7.494;2024-02-04T09:20:01;12.90;;;7.28;;
39956;SDS011;48483;44.640;7.494;2024-02-04T09:22:28;14.07;;;7.35;;
39956;SDS011;48483;44.640;7.494;2024-02-04T09:24:55;9.18;;;5.88;;
39956;SDS011;48483;44.640;7.494;2024-02-04T09:27:21;14.60;;;7.07;;
39956;SDS011;48483;44.640;7.494;2024-02-04T09:29:48;11.38;;;7.47;;
39956;SDS011;48483;44.640;7.494;2024-02-04T09:32:16;12.20;;;7.10;;
39956;SDS011;48483;44.640;7.494;2024-02-04T09:34:42;15.05;;;9.57;;
39956;SDS011;48483;44.640;7.494;2024-02-04T09:37:09;15.63;;;10.07;;
39956;SDS011;48483;44.640;7.494;2024-02-04T09:39:39;18.95;;;9.52;;
39956;SDS011;48483;44.640;7.494;2024-02-04T09:42:06;18.50;;;10.73;;
39956;SDS011;48483;44.640;7.494;2024-02-04T09:44:33;16.00;;;9.07;;
39956;SDS011;48483;44.640;7.494;2024-02-04T09:47:02;19.63;;;11.00;;
39956;SDS011;48483;44.640;7.494;2024-02-04T09:49:30;14.68;;;11.38;;
39956;SDS011;48483;44.640;7.494;2024-02-04T09:51:58;15.50;;;10.30;;
39956;SDS011;48483;44.640;7.494;2024-02-04T09:54:29;16.02;;;10.88;;
39956;SDS011;48483;44.640;7.494;2024-02-04T09:56:57;18.55;;;10.98;;
39956;SDS011;48483;44.640;7.494;2024-02-04T09:59:24;17.23;;;11.45;;
39956;SDS011;48483;44.640;7.494;2024-02-04T10:01:51;14.95;;;10.45;;
39956;SDS011;48483;44.640;7.494;2024-02-04T10:04:18;20.95;;;10.90;;
39956;SDS011;48483;44.640;7.494;2024-02-04T10:06:46;14.63;;;9.82;;
39956;SDS011;48483;44.640;7.494;2024-02-04T10:09:13;15.68;;;9.95;;
39956;SDS011;48483;44.640;7.494;2024-02-04T10:11:40;12.95;;;9.00;;
39956;SDS011;48483;44.640;7.494;2024-02-04T10:14:06;16.58;;;9.88;;
39956;SDS011;48483;44.640;7.494;2024-02-04T10:16:35;15.32;;;9.73;;
39956;SDS011;48483;44.640;7.494;2024-02-04T10:19:02;15.70;;;9.90;;
39956;SDS011;48483;44.640;7.494;2024-02-04T10:21:29;13.18;;;8.40;;
39956;SDS011;48483;44.640;7.494;2024-02-04T10:23:58;11.32;;;7.97;;
39956;SDS011;48483;44.640;7.494;2024-02-04T10:26:27;14.07;;;9.25;;
39956;SDS011;48483;44.640;7.494;2024-02-04T10:28:57;13.05;;;9.30;;
39956;SDS011;48483;44.640;7.494;2024-02-04T10:31:24;14.10;;;9.30;;
39956;SDS011;48483;44.640;7.494;2024-02-04T10:33:51;14.00;;;8.48;;
39956;SDS011;48483;44.640;7.494;2024-02-04T10:36:18;14.73;;;10.02;;
39956;SDS011;48483;44.640;7.494;2024-02-04T10:38:45;11.63;;;8.38;;
39956;SDS011;48483;44.640;7.494;2024-02-04T10:41:14;11.40;;;7.30;;
39956;SDS011;48483;44.640;7.494;2024-02-04T10:43:42;14.60;;;9.65;;
39956;SDS011;48483;44.640;7.494;2024-02-04T10:46:10;16.77;;;10.32;;
39956;SDS011;48483;44.640;7.494;2024-02-04T10:48:40;15.85;;;10.65;;
39956;SDS011;48483;44.640;7.494;2024-02-04T10:51:11;13.13;;;9.27;;
39956;SDS011;48483;44.640;7.494;2024-02-04T10:53:41;14.55;;;10.98;;
39956;SDS011;48483;44.640;7.494;2024-02-04T10:56:13;15.15;;;9.60;;
39956;SDS011;48483;44.640;7.494;2024-02-04T10:58:46;18.58;;;11.68;;
39956;SDS011;48483;44.640;7.494;2024-02-04T11:01:13;22.83;;;13.95;;
39956;SDS011;48483;44.640;7.494;2024-02-04T11:03:40;16.27;;;11.52;;
39956;SDS011;48483;44.640;7.494;2024-02-04T11:06:07;19.02;;;13.05;;
39956;SDS011;48483;44.640;7.494;2024-02-04T11:08:36;17.70;;;13.35;;
39956;SDS011;48483;44.640;7.494;2024-02-04T11:11:04;19.98;;;14.02;;
39956;SDS011;48483;44.640;7.494;2024-02-04T11:13:32;21.55;;;14.50;;
39956;SDS011;48483;44.640;7.494;2024-02-04T11:16:00;20.60;;;14.35;;
39956;SDS011;48483;44.640;7.494;2024-02-04T11:18:49;21.23;;;15.95;;
39956;SDS011;48483;44.640;7.494;2024-02-04T11:21:30;18.05;;;14.23;;
39956;SDS011;48483;44.640;7.494;2024-02-04T11:24:14;18.80;;;15.07;;
39956;SDS011;48483;44.640;7.494;2024-02-04T11:26:48;15.88;;;13.45;;
39956;SDS011;48483;44.640;7.494;2024-02-04T11:29:16;16.80;;;12.23;;
39956;SDS011;48483;44.640;7.494;2024-02-04T11:31:44;18.52;;;14.02;;
39956;SDS011;48483;44.640;7.494;2024-02-04T11:34:10;15.40;;;12.80;;
39956;SDS011;48483;44.640;7.494;2024-02-04T11:36:37;16.90;;;11.98;;
39956;SDS011;48483;44.640;7.494;2024-02-04T11:39:11;17.38;;;11.65;;
39956;SDS011;48483;44.640;7.494;2024-02-04T11:41:44;14.90;;;11.57;;
39956;SDS011;48483;44.640;7.494;2024-02-04T11:44:12;16.27;;;11.50;;
39956;SDS011;48483;44.640;7.494;2024-02-04T11:46:47;15.07;;;11.80;;
39956;SDS011;48483;44.640;7.494;2024-02-04T11:49:14;14.68;;;11.13;;
39956;SDS011;48483;44.640;7.494;2024-02-04T11:51:44;17.48;;;10.82;;
39956;SDS011;48483;44.640;7.494;2024-02-04T11:54:12;14.35;;;11.35;;
39956;SDS011;48483;44.640;7.494;2024-02-04T11:56:41;15.88;;;11.23;;
39956;SDS011;48483;44.640;7.494;2024-02-04T11:59:09;14.05;;;11.73;;
39956;SDS011;48483;44.640;7.494;2024-02-04T12:01:38;13.50;;;10.50;;
39956;SDS011;48483;44.640;7.494;2024-02-04T12:04:09;14.57;;;10.82;;
39956;SDS011;48483;44.640;7.494;2024-02-04T12:06:36;12.20;;;9.38;;
39956;SDS011;48483;44.640;7.494;2024-02-04T12:09:04;12.27;;;9.30;;
39956;SDS011;48483;44.640;7.494;2024-02-04T12:11:32;15.75;;;10.05;;
39956;SDS011;48483;44.640;7.494;2024-02-04T12:14:01;15.23;;;10.13;;
39956;SDS011;48483;44.640;7.494;2024-02-04T12:16:29;14.18;;;10.05;;
39956;SDS011;48483;44.640;7.494;2024-02-04T12:18:57;14.98;;;10.60;;
39956;SDS011;48483;44.640;7.494;2024-02-04T12:21:24;13.88;;;10.70;;
39956;SDS011;48483;44.640;7.494;2024-02-04T12:23:51;14.73;;;11.55;;
39956;SDS011;48483;44.640;7.494;2024-02-04T12:26:17;16.48;;;10.88;;
39956;SDS011;48483;44.640;7.494;2024-02-04T12:28:44;14.23;;;11.60;;
39956;SDS011;48483;44.640;7.494;2024-02-04T12:31:16;19.35;;;11.10;;
39956;SDS011;48483;44.640;7.494;2024-02-04T12:33:43;14.52;;;11.93;;
39956;SDS011;48483;44.640;7.494;2024-02-04T12:36:20;17.60;;;10.98;;
39956;SDS011;48483;44.640;7.494;2024-02-04T12:38:50;16.50;;;11.93;;
39956;SDS011;48483;44.640;7.494;2024-02-04T12:41:21;16.40;;;12.65;;
39956;SDS011;48483;44.640;7.494;2024-02-04T12:43:51;18.85;;;12.60;;
39956;SDS011;48483;44.640;7.494;2024-02-04T12:46:19;15.95;;;11.93;;
39956;SDS011;48483;44.640;7.494;2024-02-04T12:48:50;15.43;;;12.95;;
39956;SDS011;48483;44.640;7.494;2024-02-04T12:51:24;16.60;;;13.13;;
39956;SDS011;48483;44.640;7.494;2024-02-04T12:54:01;18.17;;;13.07;;
39956;SDS011;48483;44.640;7.494;2024-02-04T12:56:39;15.95;;;12.82;;
39956;SDS011;48483;44.640;7.494;2024-02-04T12:59:07;16.83;;;12.90;;
39956;SDS011;48483;44.640;7.494;2024-02-04T13:01:34;17.65;;;13.20;;
39956;SDS011;48483;44.640;7.494;2024-02-04T13:04:01;18.08;;;13.00;;
39956;SDS011;48483;44.640;7.494;2024-02-04T13:06:29;16.33;;;13.20;;
39956;SDS011;48483;44.640;7.494;2024-02-04T13:08:56;15.82;;;12.50;;
39956;SDS011;48483;44.640;7.494;2024-02-04T13:11:24;15.93;;;12.98;;
39956;SDS011;48483;44.640;7.494;2024-02-04T13:13:51;16.17;;;13.70;;
39956;SDS011;48483;44.640;7.494;2024-02-04T13:16:18;18.20;;;12.65;;
39956;SDS011;48483;44.640;7.494;2024-02-04T13:18:51;17.52;;;12.65;;
39956;SDS011;48483;44.640;7.494;2024-02-04T13:21:18;18.17;;;13.02;;
39956;SDS011;48483;44.640;7.494;2024-02-04T13:23:49;16.55;;;13.13;;
39956;SDS011;48483;44.640;7.494;2024-02-04T13:26:16;16.85;;;13.52;;
39956;SDS011;48483;44.640;7.494;2024-02-04T13:28:43;17.92;;;13.25;;
39956;SDS011;48483;44.640;7.494;2024-02-04T13:31:10;14.48;;;11.48;;
39956;SDS011;48483;44.640;7.494;2024-02-04T13:33:37;18.63;;;11.80;;
39956;SDS011;48483;44.640;7.494;2024-02-04T13:36:05;22.55;;;12.55;;
39956;SDS011;48483;44.640;7.494;2024-02-04T13:38:36;16.90;;;12.68;;
39956;SDS011;48483;44.640;7.494;2024-02-04T13:41:04;16.70;;;12.80;;
39956;SDS011;48483;44.640;7.494;2024-02-04T13:43:33;21.42;;;13.55;;
39956;SDS011;48483;44.640;7.494;2024-02-04T13:46:00;15.23;;;12.02;;
39956;SDS011;48483;44.640;7.494;2024-02-04T13:48:27;18.02;;;12.15;;
39956;SDS011;48483;44.640;7.494;2024-02-04T13:50:54;15.55;;;11.52;;
39956;SDS011;48483;44.640;7.494;2024-02-04T13:53:21;17.80;;;12.30;;
39956;SDS011;48483;44.640;7.494;2024-02-04T13:55:47;18.65;;;12.55;;
39956;SDS011;48483;44.640;7.494;2024-02-04T13:58:16;18.17;;;12.10;;
39956;SDS011;48483;44.640;7.494;2024-02-04T14:00:44;16.00;;;11.90;;
39956;SDS011;48483;44.640;7.494;2024-02-04T14:03:11;13.68;;;11.38;;
39956;SDS011;48483;44.640;7.494;2024-02-04T14:05:38;12.65;;;10.50;;
39956;SDS011;48483;44.640;7.494;2024-02-04T14:08:06;11.63;;;8.60;;
39956;SDS011;48483;44.640;7.494;2024-02-04T14:10:33;12.40;;;9.23;;
39956;SDS011;48483;44.640;7.494;2024-02-04T14:12:59;13.85;;;10.18;;
39956;SDS011;48483;44.640;7.494;2024-02-04T14:15:27;14.80;;;10.43;;
39956;SDS011;48483;44.640;7.494;2024-02-04T14:17:54;12.25;;;8.77;;
39956;SDS011;48483;44.640;7.494;2024-02-04T14:20:21;10.25;;;7.45;;
39956;SDS011;48483;44.640;7.494;2024-02-04T14:22:48;11.55;;;8.57;;
39956;SDS011;48483;44.640;7.494;2024-02-04T14:25:15;10.82;;;8.38;;
39956;SDS011;48483;44.640;7.494;2024-02-04T14:27:41;10.77;;;8.77;;
39956;SDS011;48483;44.640;7.494;2024-02-04T14:30:08;12.75;;;8.68;;
39956;SDS011;48483;44.640;7.494;2024-02-04T14:32:37;14.63;;;7.63;;
39956;SDS011;48483;44.640;7.494;2024-02-04T14:35:04;12.38;;;8.35;;
39956;SDS011;48483;44.640;7.494;2024-02-04T14:37:31;9.65;;;7.53;;
39956;SDS011;48483;44.640;7.494;2024-02-04T14:39:58;12.02;;;8.93;;